Time;durP1;ratioP1;P1;durP2;ratioP2;P2;SDS_P1;SDS_P2;PMS_P1;PMS_P2;Temp;Humidity;BMP_temperature;BMP_pressure;BME280_temperature;BME280_humidity;BME280_pressure;Samples;Min_cycle;Max_cycle;Signal;HPM_P1;HPM_P2
2021/06/18 00:02:06;;;;;;;18.20;16.40;;;25.00;73.90;;;;;;5023205;28;20459;-48
2021/06/18 00:04:33;;;;;;;16.53;15.07;;;25.00;74.00;;;;;;5023826;28;20462;-47
2021/06/18 00:06:59;;;;;;;18.10;15.77;;;25.00;74.10;;;;;;5022097;28;20450;-49
2021/06/18 00:09:26;;;;;;;18.90;15.60;;;24.90;74.10;;;;;;5023182;28;20478;-49
2021/06/18 00:11:53;;;;;;;16.10;14.50;;;24.90;74.10;;;;;;5022632;28;20467;-49
2021/06/18 00:14:19;;;;;;;19.07;15.37;;;24.80;74.20;;;;;;5019605;28;20490;-49
2021/06/18 00:16:47;;;;;;;16.90;15.30;;;24.80;74.10;;;;;;5005605;28;20463;-47
2021/06/18 00:19:16;;;;;;;16.30;14.80;;;24.80;74.10;;;;;;5018185;28;20480;-49
2021/06/18 00:21:43;;;;;;;17.10;15.60;;;24.80;74.00;;;;;;5019542;28;21017;-49
2021/06/18 00:24:10;;;;;;;17.77;15.93;;;24.70;74.10;;;;;;5015489;28;20480;-49
2021/06/18 00:26:36;;;;;;;17.87;16.07;;;24.80;74.00;;;;;;5016712;28;20455;-48
2021/06/18 00:29:03;;;;;;;18.20;16.23;;;24.70;74.00;;;;;;5022014;28;20520;-49
2021/06/18 00:31:30;;;;;;;18.17;16.47;;;24.60;74.10;;;;;;5017085;28;20882;-49
2021/06/18 00:33:57;;;;;;;17.63;15.97;;;24.60;74.10;;;;;;5019060;28;20486;-49
2021/06/18 00:36:24;;;;;;;21.43;15.77;;;24.60;74.20;;;;;;5017943;28;20463;-49
2021/06/18 00:38:51;;;;;;;18.73;16.83;;;24.60;74.20;;;;;;5006145;28;20455;-49
2021/06/18 00:41:17;;;;;;;16.53;15.00;;;24.50;74.30;;;;;;5022461;28;20550;-49
2021/06/18 00:43:44;;;;;;;16.97;15.23;;;24.50;74.40;;;;;;5022162;28;20459;-49
2021/06/18 00:46:12;;;;;;;18.53;16.67;;;24.50;74.50;;;;;;5022855;28;20470;-49
2021/06/18 00:48:39;;;;;;;17.47;15.70;;;24.40;74.50;;;;;;5023449;28;20466;-49
2021/06/18 00:51:06;;;;;;;18.03;16.27;;;24.40;74.40;;;;;;5005818;28;20455;-49
2021/06/18 00:53:33;;;;;;;17.40;15.70;;;24.40;74.60;;;;;;5023190;28;21004;-49
2021/06/18 00:56:00;;;;;;;17.50;15.90;;;24.30;74.70;;;;;;5020202;28;20447;-49
2021/06/18 00:58:30;;;;;;;17.33;15.50;;;24.30;74.70;;;;;;5021441;28;20470;-48
2021/06/18 01:00:57;;;;;;;17.67;15.97;;;24.30;74.80;;;;;;5020906;28;20451;-49
2021/06/18 01:03:24;;;;;;;18.30;16.47;;;24.30;74.90;;;;;;5021820;28;20459;-48
2021/06/18 01:05:54;;;;;;;17.83;16.03;;;24.30;74.80;;;;;;5009371;28;20513;-49
2021/06/18 01:08:43;;;;;;;18.33;16.27;;;24.30;74.80;;;;;;5022759;28;20466;-49
2021/06/18 01:11:20;;;;;;;18.03;16.33;;;24.30;74.90;;;;;;5005535;28;20482;-49
2021/06/18 01:13:58;;;;;;;22.87;16.93;;;24.20;74.90;;;;;;5020227;28;20844;-49
2021/06/18 01:16:29;;;;;;;17.57;15.77;;;24.20;75.10;;;;;;5017991;28;20831;-49
2021/06/18 01:19:27;;;;;;;18.17;16.43;;;24.10;75.10;;;;;;5021235;28;20483;-49
2021/06/18 01:22:06;;;;;;;17.60;15.97;;;24.10;75.20;;;;;;5022374;28;20473;-49
2021/06/18 01:24:35;;;;;;;17.27;15.37;;;24.00;75.30;;;;;;5022674;28;20827;-48
2021/06/18 01:27:12;;;;;;;17.40;15.80;;;24.10;75.40;;;;;;5019363;28;20466;-49
2021/06/18 01:29:44;;;;;;;19.13;17.20;;;24.00;75.40;;;;;;5006439;28;20455;-49
2021/06/18 01:32:19;;;;;;;16.90;15.20;;;24.00;75.50;;;;;;5004426;28;20550;-49
2021/06/18 01:34:48;;;;;;;18.83;15.53;;;24.00;75.50;;;;;;5022905;28;20497;-49
2021/06/18 01:37:18;;;;;;;15.80;14.13;;;23.90;75.60;;;;;;5022065;28;20485;-49
2021/06/18 01:39:47;;;;;;;17.00;15.30;;;23.90;75.60;;;;;;5020604;28;20483;-49
2021/06/18 01:42:15;;;;;;;18.20;15.73;;;23.90;75.70;;;;;;5023516;28;20462;-49
2021/06/18 01:44:43;;;;;;;19.17;15.10;;;23.90;75.60;;;;;;5003569;28;20554;-49
2021/06/18 01:47:13;;;;;;;15.67;14.27;;;23.90;75.60;;;;;;5026025;28;20471;-49
2021/06/18 01:49:41;;;;;;;17.77;15.97;;;23.90;75.40;;;;;;5002793;28;20460;-49
2021/06/18 01:52:10;;;;;;;18.87;16.23;;;23.90;75.10;;;;;;5023970;28;20479;-49
2021/06/18 01:54:40;;;;;;;17.73;14.90;;;23.90;75.00;;;;;;5022324;28;21019;-49
2021/06/18 01:57:08;;;;;;;19.23;15.23;;;23.90;74.80;;;;;;5021819;28;21027;-49
2021/06/18 01:59:36;;;;;;;16.07;14.20;;;23.80;74.90;;;;;;5025027;28;20808;-49
2021/06/18 02:02:05;;;;;;;16.43;14.70;;;23.70;74.90;;;;;;5024207;28;20455;-49
2021/06/18 02:04:34;;;;;;;17.23;15.53;;;23.70;74.90;;;;;;5024127;28;20953;-49
2021/06/18 02:07:02;;;;;;;17.93;16.33;;;23.70;74.90;;;;;;5021462;28;20463;-49
2021/06/18 02:09:31;;;;;;;18.73;16.50;;;23.60;74.90;;;;;;5022225;28;20447;-49
2021/06/18 02:11:58;;;;;;;17.00;15.20;;;23.60;75.00;;;;;;5024283;28;20466;-49
2021/06/18 02:14:28;;;;;;;17.50;14.63;;;23.60;75.10;;;;;;5024809;28;21048;-48
2021/06/18 02:16:59;;;;;;;17.27;15.50;;;23.50;75.20;;;;;;5026003;28;20463;-48
2021/06/18 02:19:28;;;;;;;18.80;14.97;;;23.50;75.20;;;;;;5022734;28;20479;-49
2021/06/18 02:21:56;;;;;;;18.17;16.37;;;23.50;75.20;;;;;;5004692;28;20470;-48
2021/06/18 02:24:26;;;;;;;17.90;16.03;;;23.40;75.20;;;;;;5007237;28;20475;-49
2021/06/18 02:26:55;;;;;;;15.67;14.00;;;23.40;75.30;;;;;;5022409;28;20467;-49
2021/06/18 02:29:22;;;;;;;18.00;16.33;;;23.40;75.40;;;;;;5022020;28;20952;-49
2021/06/18 02:31:49;;;;;;;17.67;15.73;;;23.40;75.50;;;;;;5019564;28;20757;-49
2021/06/18 02:34:16;;;;;;;19.77;14.97;;;23.30;75.60;;;;;;5009892;28;20492;-49
2021/06/18 02:36:43;;;;;;;17.30;15.50;;;23.30;75.60;;;;;;5020847;28;20452;-49
2021/06/18 02:39:11;;;;;;;16.60;15.00;;;23.30;75.60;;;;;;5027112;28;20494;-49
2021/06/18 02:41:39;;;;;;;25.10;18.60;;;23.20;75.60;;;;;;5022336;28;20470;-49
2021/06/18 02:44:06;;;;;;;19.27;17.27;;;23.20;75.70;;;;;;5023745;28;20979;-49
2021/06/18 02:46:44;;;;;;;17.93;16.03;;;23.20;75.90;;;;;;5007222;28;20953;-49
2021/06/18 02:49:17;;;;;;;18.07;16.20;;;23.20;76.00;;;;;;5023020;28;20825;-50
2021/06/18 02:52:07;;;;;;;18.03;16.00;;;23.10;76.20;;;;;;5022323;28;20865;-49
2021/06/18 02:54:42;;;;;;;19.33;17.30;;;23.20;76.30;;;;;;5005675;28;20476;-50
2021/06/18 02:57:27;;;;;;;18.87;16.97;;;23.10;76.30;;;;;;5026304;28;20513;-50
2021/06/18 03:00:13;;;;;;;17.23;15.53;;;23.10;76.60;;;;;;5021151;28;20470;-49
2021/06/18 03:02:52;;;;;;;18.20;16.30;;;23.10;76.80;;;;;;5021813;28;20499;-49
2021/06/18 03:05:21;;;;;;;17.23;15.60;;;23.10;76.80;;;;;;5022197;28;20976;-49
2021/06/18 03:07:58;;;;;;;17.43;15.73;;;23.10;76.90;;;;;;5021990;28;21055;-49
2021/06/18 03:10:26;;;;;;;17.17;15.57;;;23.10;77.00;;;;;;5020939;28;20447;-49
2021/06/18 03:13:09;;;;;;;17.90;15.40;;;23.10;77.00;;;;;;5023306;28;20476;-49
2021/06/18 03:15:40;;;;;;;17.70;15.90;;;23.10;77.10;;;;;;5019762;28;20486;-50
2021/06/18 03:18:09;;;;;;;19.63;16.77;;;23.00;77.10;;;;;;5023192;28;20481;-50
2021/06/18 03:20:36;;;;;;;17.20;15.43;;;23.10;77.20;;;;;;5022278;28;20466;-50
2021/06/18 03:23:08;;;;;;;18.23;16.57;;;23.10;77.30;;;;;;5022669;28;20459;-50
2021/06/18 03:25:37;;;;;;;17.37;15.67;;;23.10;77.30;;;;;;5022216;28;20975;-49
2021/06/18 03:28:05;;;;;;;17.87;16.00;;;23.00;77.30;;;;;;5002649;28;20999;-50
2021/06/18 03:30:34;;;;;;;19.53;16.40;;;23.00;77.30;;;;;;5020221;28;20467;-50
2021/06/18 03:33:03;;;;;;;17.87;16.10;;;23.00;77.30;;;;;;5020105;28;20459;-50
2021/06/18 03:35:31;;;;;;;18.30;15.73;;;23.00;77.20;;;;;;5023261;28;20497;-49
2021/06/18 03:38:00;;;;;;;17.03;14.77;;;23.10;77.10;;;;;;5021831;28;20454;-49
2021/06/18 03:40:27;;;;;;;16.17;14.50;;;23.10;76.60;;;;;;5020538;28;20483;-49
2021/06/18 03:42:54;;;;;;;16.47;14.70;;;23.10;74.50;;;;;;5017650;28;20462;-50
2021/06/18 03:45:22;;;;;;;16.60;14.30;;;23.00;74.50;;;;;;5016569;28;20988;-49
2021/06/18 03:47:50;;;;;;;17.43;15.23;;;22.90;74.60;;;;;;5020668;28;21094;-50
2021/06/18 03:50:20;;;;;;;23.07;15.60;;;22.90;74.90;;;;;;5020922;28;20471;-50
2021/06/18 03:52:47;;;;;;;19.30;17.20;;;22.80;75.60;;;;;;5003292;28;20947;-49
2021/06/18 03:55:14;;;;;;;18.20;16.43;;;22.80;76.10;;;;;;5019654;28;20522;-50
2021/06/18 03:57:44;;;;;;;17.57;15.83;;;22.70;76.60;;;;;;5022239;28;20932;-50
2021/06/18 04:00:14;;;;;;;22.70;17.90;;;22.70;76.90;;;;;;5019109;28;20972;-50
2021/06/18 04:02:42;;;;;;;19.07;17.17;;;22.60;77.20;;;;;;5020070;28;20490;-49
2021/06/18 04:05:13;;;;;;;19.27;17.17;;;22.70;77.20;;;;;;5007912;28;20455;-50
2021/06/18 04:07:45;;;;;;;21.23;16.27;;;22.70;77.30;;;;;;4995394;28;20469;-49
2021/06/18 04:10:13;;;;;;;19.30;15.40;;;22.70;77.50;;;;;;5017204;28;20472;-49
2021/06/18 04:12:41;;;;;;;17.70;16.00;;;22.80;77.70;;;;;;5021280;28;21376;-50
2021/06/18 04:15:09;;;;;;;19.13;17.23;;;22.90;77.30;;;;;;5024287;28;20491;-50
2021/06/18 04:17:38;;;;;;;18.70;16.87;;;23.00;77.20;;;;;;5010602;28;20947;-49
2021/06/18 04:20:05;;;;;;;18.23;16.40;;;22.90;77.20;;;;;;5023944;28;20573;-49
2021/06/18 04:22:35;;;;;;;20.80;16.40;;;23.00;77.00;;;;;;5022302;28;20476;-50
2021/06/18 04:25:06;;;;;;;17.60;15.80;;;23.00;77.00;;;;;;5026152;28;20467;-50
2021/06/18 04:27:33;;;;;;;19.53;16.30;;;23.00;77.00;;;;;;5022366;28;21070;-49
2021/06/18 04:30:07;;;;;;;17.37;15.70;;;23.10;76.90;;;;;;5024823;28;20473;-49
2021/06/18 04:32:34;;;;;;;17.87;16.13;;;23.10;77.10;;;;;;5022581;28;20460;-50
2021/06/18 04:35:00;;;;;;;17.97;16.17;;;23.10;77.20;;;;;;5025295;28;21039;-50
2021/06/18 04:37:28;;;;;;;20.57;18.10;;;23.10;77.40;;;;;;5025660;28;20461;-49
2021/06/18 04:39:55;;;;;;;19.07;17.17;;;23.10;77.50;;;;;;5022920;28;20463;-49
2021/06/18 04:42:22;;;;;;;20.70;17.10;;;23.20;77.50;;;;;;5023202;28;20470;-50
2021/06/18 04:44:51;;;;;;;22.23;17.87;;;23.20;77.50;;;;;;5026342;28;20466;-50
2021/06/18 04:47:19;;;;;;;18.17;16.47;;;23.20;77.60;;;;;;5013358;28;20530;-49
2021/06/18 04:49:47;;;;;;;20.13;17.50;;;23.20;77.60;;;;;;5020053;28;20451;-50
2021/06/18 04:52:15;;;;;;;18.87;16.97;;;23.20;77.60;;;;;;5010287;28;20476;-50
2021/06/18 04:54:42;;;;;;;18.33;16.23;;;23.30;77.50;;;;;;5021962;28;20489;-50
2021/06/18 04:57:09;;;;;;;19.47;17.23;;;23.40;77.30;;;;;;5021231;28;20910;-50
2021/06/18 04:59:37;;;;;;;20.17;16.90;;;23.40;77.30;;;;;;5022590;28;20448;-49
2021/06/18 05:02:05;;;;;;;17.13;15.43;;;23.40;77.30;;;;;;5026274;28;20463;-49
2021/06/18 05:04:32;;;;;;;18.23;16.33;;;23.50;77.50;;;;;;5003331;28;20462;-50
2021/06/18 05:06:59;;;;;;;18.57;16.80;;;23.60;77.60;;;;;;5022399;28;20470;-50
2021/06/18 05:09:26;;;;;;;21.80;17.90;;;23.70;77.60;;;;;;5006342;28;20470;-50
2021/06/18 05:11:53;;;;;;;18.93;17.00;;;23.70;77.50;;;;;;5021770;28;20522;-50
2021/06/18 05:14:21;;;;;;;20.23;17.10;;;23.70;77.30;;;;;;5021583;28;21110;-50
2021/06/18 05:16:47;;;;;;;20.03;18.03;;;23.80;77.10;;;;;;5021157;28;20455;-49
2021/06/18 05:19:14;;;;;;;17.83;16.17;;;23.80;76.90;;;;;;5021800;28;20482;-49
2021/06/18 05:21:41;;;;;;;19.60;17.43;;;23.90;76.70;;;;;;5022970;28;20997;-50
2021/06/18 05:24:09;;;;;;;20.40;18.50;;;23.90;76.70;;;;;;5026934;28;20469;-50
2021/06/18 05:26:36;;;;;;;19.57;17.57;;;24.00;76.80;;;;;;5023026;28;20455;-50
2021/06/18 05:29:03;;;;;;;19.30;17.30;;;24.10;76.70;;;;;;5008566;28;20495;-50
2021/06/18 05:31:32;;;;;;;19.77;17.07;;;24.10;76.80;;;;;;5024701;28;20990;-50
2021/06/18 05:33:59;;;;;;;21.00;17.90;;;24.20;76.60;;;;;;5024351;28;20499;-50
2021/06/18 05:36:28;;;;;;;19.50;17.50;;;24.20;76.40;;;;;;5007638;28;20489;-50
2021/06/18 05:38:57;;;;;;;24.83;18.70;;;24.30;76.40;;;;;;5009764;28;20447;-49
2021/06/18 05:41:25;;;;;;;19.27;17.30;;;24.30;76.30;;;;;;5022179;28;20463;-50
2021/06/18 05:43:52;;;;;;;19.27;17.37;;;24.30;76.40;;;;;;5020910;28;20459;-50
2021/06/18 05:46:19;;;;;;;20.17;17.70;;;24.40;76.30;;;;;;5023630;28;20508;-50
2021/06/18 05:48:46;;;;;;;20.27;17.67;;;24.40;76.10;;;;;;5008633;28;20968;-50
2021/06/18 05:51:12;;;;;;;17.63;15.80;;;24.40;76.00;;;;;;5023126;28;20463;-49
2021/06/18 05:53:39;;;;;;;21.80;17.60;;;24.50;75.60;;;;;;5023391;28;20458;-50
2021/06/18 05:56:06;;;;;;;17.77;16.07;;;24.60;75.30;;;;;;5023176;28;20494;-50
2021/06/18 05:58:33;;;;;;;18.27;16.40;;;24.60;75.00;;;;;;5022829;28;20447;-50
2021/06/18 06:01:00;;;;;;;21.70;19.50;;;24.60;74.80;;;;;;5025151;28;20809;-50
2021/06/18 06:03:27;;;;;;;17.67;16.00;;;24.70;74.90;;;;;;5024113;28;20600;-50
2021/06/18 06:05:53;;;;;;;17.27;15.50;;;24.70;75.00;;;;;;5023028;28;20462;-50
2021/06/18 06:08:20;;;;;;;18.60;16.00;;;24.80;74.80;;;;;;5022020;28;20471;-50
2021/06/18 06:10:49;;;;;;;17.70;15.43;;;24.80;74.40;;;;;;5024746;28;20475;-50
2021/06/18 06:13:19;;;;;;;21.20;17.30;;;25.00;73.80;;;;;;5022171;28;20526;-49
2021/06/18 06:15:47;;;;;;;16.13;14.67;;;25.10;73.30;;;;;;5021255;28;20844;-49
2021/06/18 06:18:14;;;;;;;18.60;15.73;;;25.20;73.00;;;;;;5020081;28;20557;-49
2021/06/18 06:20:42;;;;;;;16.07;14.60;;;25.30;72.80;;;;;;5022812;28;20462;-49
2021/06/18 06:23:10;;;;;;;17.07;15.57;;;25.40;72.90;;;;;;5007605;28;20964;-49
2021/06/18 06:25:38;;;;;;;16.73;15.03;;;25.50;71.30;;;;;;5019946;28;20497;-49
2021/06/18 06:28:05;;;;;;;17.20;15.60;;;25.60;70.80;;;;;;5021250;28;20455;-49
2021/06/18 06:30:33;;;;;;;17.50;15.30;;;25.70;71.00;;;;;;5020188;28;20462;-49
2021/06/18 06:33:00;;;;;;;16.97;14.80;;;25.90;71.90;;;;;;5023350;28;20483;-49
2021/06/18 06:35:27;;;;;;;18.33;16.23;;;26.00;72.30;;;;;;5019636;28;20486;-49
2021/06/18 06:37:54;;;;;;;18.53;15.17;;;26.20;72.00;;;;;;5022552;28;20463;-49
2021/06/18 06:40:23;;;;;;;17.40;14.90;;;26.30;71.90;;;;;;5024967;28;20447;-49
2021/06/18 06:42:51;;;;;;;16.13;14.53;;;26.40;71.30;;;;;;5020583;28;20929;-49
2021/06/18 06:45:19;;;;;;;15.10;13.70;;;26.50;71.10;;;;;;5019830;28;20487;-49
2021/06/18 06:47:46;;;;;;;16.50;13.90;;;26.50;70.80;;;;;;5018293;28;20444;-49
2021/06/18 06:50:14;;;;;;;13.83;12.43;;;26.60;70.70;;;;;;5021368;28;20438;-49
2021/06/18 06:52:41;;;;;;;14.80;13.40;;;26.70;70.00;;;;;;5017111;28;20497;-49
2021/06/18 06:55:09;;;;;;;15.30;12.80;;;26.90;69.30;;;;;;5020300;28;20479;-49
2021/06/18 06:57:36;;;;;;;13.63;12.27;;;27.00;68.60;;;;;;5021918;28;20459;-49
2021/06/18 07:00:05;;;;;;;15.53;11.57;;;27.20;68.00;;;;;;5009097;28;20498;-49
2021/06/18 07:02:32;;;;;;;14.50;11.23;;;27.30;67.00;;;;;;5017803;28;20948;-49
2021/06/18 07:05:01;;;;;;;13.07;11.80;;;27.50;65.80;;;;;;5022110;28;21660;-49
2021/06/18 07:07:27;;;;;;;12.40;11.20;;;27.70;65.10;;;;;;5017820;28;20902;-49
2021/06/18 07:09:54;;;;;;;11.93;10.60;;;27.90;64.00;;;;;;5016843;28;20452;-49
2021/06/18 07:12:21;;;;;;;10.80;9.73;;;28.00;64.20;;;;;;5021566;28;20452;-50
2021/06/18 07:14:48;;;;;;;10.93;9.70;;;28.10;61.70;;;;;;5016445;28;20447;-49
2021/06/18 07:17:15;;;;;;;10.10;9.07;;;28.30;61.20;;;;;;5017765;28;20452;-49
2021/06/18 07:19:42;;;;;;;10.47;9.53;;;28.40;61.20;;;;;;5007394;28;20221;-49
2021/06/18 07:22:09;;;;;;;10.77;9.73;;;28.60;59.90;;;;;;5001974;28;20716;-49
2021/06/18 07:24:36;;;;;;;13.60;11.97;;;28.70;58.50;;;;;;5021300;28;20223;-49
2021/06/18 07:27:03;;;;;;;13.60;12.23;;;28.90;60.20;;;;;;5008504;28;20726;-49
2021/06/18 07:29:30;;;;;;;13.43;12.23;;;29.00;60.70;;;;;;5019109;28;20200;-49
2021/06/18 07:31:57;;;;;;;14.37;13.10;;;29.20;61.00;;;;;;5018538;28;20542;-49
2021/06/18 07:34:27;;;;;;;14.47;12.83;;;29.30;61.40;;;;;;5013848;28;20283;-49
2021/06/18 07:36:54;;;;;;;13.40;12.10;;;29.50;60.80;;;;;;5016686;28;20235;-50
2021/06/18 07:39:33;;;;;;;13.77;12.48;;;29.60;60.70;;;;;;5021692;28;20217;-49
2021/06/18 07:42:00;;;;;;;15.53;12.43;;;29.80;61.10;;;;;;5019059;28;20446;-49
2021/06/18 07:44:26;;;;;;;12.57;11.17;;;29.90;59.90;;;;;;5019297;28;20199;-49
2021/06/18 07:46:53;;;;;;;13.73;11.60;;;30.00;59.80;;;;;;5016550;28;20212;-49
2021/06/18 07:49:20;;;;;;;15.48;12.27;;;30.10;59.20;;;;;;5023476;28;20577;-49
2021/06/18 07:51:47;;;;;;;12.77;11.50;;;30.20;57.70;;;;;;5019623;28;20204;-49
2021/06/18 07:54:14;;;;;;;13.23;11.48;;;30.30;58.10;;;;;;5019166;28;20220;-49
2021/06/18 07:56:44;;;;;;;13.43;11.93;;;30.50;57.30;;;;;;5021526;28;20684;-50
2021/06/18 07:59:12;;;;;;;14.05;10.70;;;30.60;56.70;;;;;;5023085;28;20459;-50
2021/06/18 08:01:39;;;;;;;12.75;11.43;;;30.80;55.90;;;;;;5022348;28;20294;-50
2021/06/18 08:04:06;;;;;;;10.88;9.85;;;30.90;56.10;;;;;;5021960;28;20258;-50
2021/06/18 08:06:35;;;;;;;11.73;10.65;;;31.00;55.20;;;;;;5022067;28;20666;-50
2021/06/18 08:09:04;;;;;;;13.00;10.52;;;31.10;53.50;;;;;;4973493;28;20219;-50
2021/06/18 08:11:31;;;;;;;11.30;10.13;;;31.30;53.60;;;;;;5024278;28;20208;-50
2021/06/18 08:13:59;;;;;;;11.63;10.52;;;31.40;53.70;;;;;;5020776;28;20227;-50
2021/06/18 08:16:25;;;;;;;11.40;10.30;;;31.60;53.90;;;;;;5022501;28;20228;-50
2021/06/18 08:18:52;;;;;;;10.80;9.90;;;31.70;53.70;;;;;;5023418;28;20277;-50
2021/06/18 08:21:20;;;;;;;10.60;9.68;;;31.90;54.30;;;;;;5019888;28;20689;-50
2021/06/18 08:23:47;;;;;;;13.88;10.60;;;32.00;54.00;;;;;;5020006;28;20212;-50
2021/06/18 08:26:13;;;;;;;11.85;10.85;;;32.10;53.20;;;;;;5023673;28;20598;-50
2021/06/18 08:28:40;;;;;;;10.95;9.77;;;32.20;53.10;;;;;;5020120;28;20219;-50
2021/06/18 08:31:07;;;;;;;11.07;9.95;;;32.30;52.90;;;;;;5021041;28;21744;-49
2021/06/18 08:33:36;;;;;;;11.00;9.93;;;32.50;52.30;;;;;;5018979;28;20217;-50
2021/06/18 08:36:04;;;;;;;10.73;9.63;;;32.60;51.80;;;;;;5022131;28;20948;-50
2021/06/18 08:38:34;;;;;;;14.85;10.73;;;32.70;51.50;;;;;;5020685;28;20213;-49
2021/06/18 08:41:03;;;;;;;12.60;8.88;;;32.90;51.30;;;;;;5019949;28;20216;-49
2021/06/18 08:43:31;;;;;;;10.98;8.95;;;33.00;51.10;;;;;;5023936;28;20200;-49
2021/06/18 08:46:03;;;;;;;10.43;9.38;;;33.20;49.80;;;;;;5021440;28;20218;-49
2021/06/18 08:48:31;;;;;;;12.25;8.70;;;33.30;49.80;;;;;;5023905;28;20215;-50
2021/06/18 08:51:00;;;;;;;8.82;8.00;;;33.40;49.50;;;;;;5019733;28;20892;-49
2021/06/18 08:53:32;;;;;;;9.75;8.73;;;33.50;48.90;;;;;;5021006;28;20212;-50
2021/06/18 08:55:59;;;;;;;8.65;7.85;;;33.60;48.80;;;;;;5025177;28;20251;-50
2021/06/18 08:58:26;;;;;;;11.20;8.50;;;33.70;48.90;;;;;;5019352;28;20213;-49
2021/06/18 09:00:53;;;;;;;7.43;6.18;;;33.80;47.90;;;;;;5024920;28;20204;-50
2021/06/18 09:03:41;;;;;;;7.45;6.75;;;33.90;46.50;;;;;;5018867;28;20192;-49
2021/06/18 09:06:28;;;;;;;8.40;6.22;;;34.00;46.50;;;;;;5004474;28;20213;-50
2021/06/18 09:09:24;;;;;;;9.52;7.03;;;34.10;46.80;;;;;;5021550;28;20213;-50
2021/06/18 09:12:03;;;;;;;11.75;6.47;;;34.20;47.10;;;;;;5024178;28;20212;-50
2021/06/18 09:14:34;;;;;;;6.22;5.25;;;34.30;45.30;;;;;;5023903;28;20303;-49
2021/06/18 09:17:01;;;;;;;7.68;5.78;;;34.40;43.90;;;;;;5021575;28;20243;-50
2021/06/18 09:19:28;;;;;;;7.47;6.25;;;34.50;44.90;;;;;;5026480;28;20243;-50
2021/06/18 09:22:01;;;;;;;14.27;6.80;;;34.60;44.30;;;;;;5021057;28;20627;-50
2021/06/18 09:24:33;;;;;;;9.98;6.88;;;34.80;44.70;;;;;;5021613;28;20243;-49
2021/06/18 09:27:01;;;;;;;10.38;6.43;;;34.90;44.80;;;;;;5009061;28;20713;-49
2021/06/18 09:29:28;;;;;;;6.68;6.10;;;35.20;44.50;;;;;;5023176;28;20206;-50
2021/06/18 09:31:59;;;;;;;6.20;4.72;;;35.40;44.10;;;;;;5023191;28;20239;-50
2021/06/18 09:34:49;;;;;;;5.63;4.65;;;35.70;41.40;;;;;;5019300;28;20291;-50
2021/06/18 09:37:30;;;;;;;5.97;5.32;;;35.90;40.90;;;;;;5007808;28;20232;-50
2021/06/18 09:40:11;;;;;;;7.47;5.43;;;36.30;40.50;;;;;;5021684;28;20214;-49
2021/06/18 09:42:55;;;;;;;7.07;5.00;;;36.70;40.50;;;;;;5021407;28;20223;-50
2021/06/18 09:45:32;;;;;;;7.65;5.95;;;37.00;40.20;;;;;;5021593;28;20218;-49
2021/06/18 09:48:20;;;;;;;6.60;5.97;;;37.30;40.10;;;;;;5019332;28;20673;-50
2021/06/18 09:50:59;;;;;;;7.28;5.85;;;37.40;40.50;;;;;;5022934;28;20210;-51
2021/06/18 09:53:27;;;;;;;8.40;6.28;;;37.50;40.30;;;;;;5008379;28;20219;-50
2021/06/18 09:56:00;;;;;;;7.03;6.30;;;37.60;39.90;;;;;;5028453;28;20319;-51
2021/06/18 09:58:38;;;;;;;7.13;6.50;;;37.50;39.20;;;;;;5007626;28;20703;-50
2021/06/18 10:01:27;;;;;;;8.05;7.40;;;37.40;40.00;;;;;;5006109;28;20208;-50
2021/06/18 10:04:04;;;;;;;8.98;6.90;;;37.20;40.10;;;;;;5024784;28;20208;-51
2021/06/18 10:06:36;;;;;;;8.05;7.22;;;36.90;39.90;;;;;;5022113;28;20212;-50
2021/06/18 10:09:04;;;;;;;9.02;7.72;;;36.60;40.20;;;;;;5022469;28;20230;-50
2021/06/18 10:11:32;;;;;;;8.60;7.50;;;36.30;41.10;;;;;;5022387;28;20210;-50
2021/06/18 10:13:59;;;;;;;8.15;7.55;;;36.00;41.70;;;;;;5025304;28;20210;-49
2021/06/18 10:16:27;;;;;;;11.60;8.35;;;35.70;42.10;;;;;;5026946;28;20224;-51
2021/06/18 10:18:59;;;;;;;10.00;8.45;;;35.50;42.60;;;;;;5024241;28;20224;-50
2021/06/18 10:21:27;;;;;;;10.95;8.43;;;35.30;42.90;;;;;;5009245;28;20213;-50
2021/06/18 10:24:00;;;;;;;8.70;7.78;;;35.10;43.80;;;;;;5023645;28;20211;-50
2021/06/18 10:26:29;;;;;;;10.02;8.32;;;34.80;44.40;;;;;;5022689;28;20299;-50
2021/06/18 10:28:59;;;;;;;10.30;8.60;;;34.60;44.40;;;;;;5007652;28;20211;-49
2021/06/18 10:31:31;;;;;;;9.85;8.75;;;34.40;45.40;;;;;;5025159;28;20216;-50
2021/06/18 10:34:16;;;;;;;12.43;9.15;;;34.20;45.50;;;;;;5022834;28;20254;-50
2021/06/18 10:36:44;;;;;;;9.55;8.73;;;34.00;45.10;;;;;;5021819;28;20228;-49
2021/06/18 10:39:12;;;;;;;9.85;8.95;;;33.90;45.20;;;;;;5021620;28;20219;-50
2021/06/18 10:41:48;;;;;;;11.27;10.20;;;33.90;45.90;;;;;;5022045;28;20201;-49
2021/06/18 10:44:37;;;;;;;9.50;8.55;;;33.90;46.30;;;;;;5022429;28;20735;-50
2021/06/18 10:47:05;;;;;;;9.02;8.13;;;33.80;45.80;;;;;;5006871;28;20247;-51
2021/06/18 10:49:40;;;;;;;12.63;10.50;;;33.70;45.30;;;;;;5023605;28;20204;-49
2021/06/18 10:52:24;;;;;;;11.30;8.98;;;33.60;45.40;;;;;;5018653;28;20203;-49
2021/06/18 10:55:00;;;;;;;9.07;8.25;;;33.60;45.70;;;;;;5021264;28;20567;-49
2021/06/18 10:57:29;;;;;;;9.30;8.48;;;33.50;45.80;;;;;;5020652;28;20232;-50
2021/06/18 11:00:22;;;;;;;10.07;8.98;;;33.40;46.10;;;;;;5021759;28;20705;-50
2021/06/18 11:02:49;;;;;;;9.77;8.95;;;33.30;45.40;;;;;;5018670;28;20688;-50
2021/06/18 11:05:25;;;;;;;8.98;8.18;;;33.20;44.50;;;;;;5020137;28;20675;-50
2021/06/18 11:08:26;;;;;;;9.50;8.70;;;33.10;44.40;;;;;;5021554;28;20563;-50
2021/06/18 11:11:21;;;;;;;11.80;9.82;;;32.90;45.10;;;;;;5018901;28;20204;-49
2021/06/18 11:14:13;;;;;;;10.73;9.80;;;32.80;45.80;;;;;;5003377;28;20599;-49
2021/06/18 11:16:42;;;;;;;10.93;9.82;;;32.80;46.20;;;;;;5020283;28;20216;-50
2021/06/18 11:19:26;;;;;;;11.63;10.52;;;32.60;46.60;;;;;;5004208;28;20251;-50
2021/06/18 11:21:54;;;;;;;10.57;9.73;;;32.60;47.10;;;;;;5023746;28;20573;-50
2021/06/18 11:24:50;;;;;;;11.15;10.13;;;32.60;48.20;;;;;;5019909;28;20246;-50
2021/06/18 11:27:30;;;;;;;11.38;10.18;;;32.50;47.00;;;;;;5003910;28;20219;-49
2021/06/18 11:30:27;;;;;;;9.88;9.00;;;32.40;47.50;;;;;;5020644;28;20219;-51
2021/06/18 11:32:55;;;;;;;11.35;10.35;;;32.30;47.70;;;;;;5002682;28;20200;-50
2021/06/18 11:35:33;;;;;;;11.45;10.55;;;32.30;47.90;;;;;;5020309;28;20208;-50
2021/06/18 11:38:15;;;;;;;10.65;9.65;;;32.20;48.60;;;;;;5019746;28;20226;-50
2021/06/18 11:40:43;;;;;;;10.90;9.90;;;32.20;48.70;;;;;;5015965;28;20212;-50
2021/06/18 11:43:12;;;;;;;11.20;10.25;;;32.20;49.30;;;;;;5018492;28;20208;-50
2021/06/18 11:45:41;;;;;;;12.57;11.38;;;32.20;48.70;;;;;;5021543;28;20208;-50
2021/06/18 11:48:13;;;;;;;11.55;10.55;;;32.10;48.60;;;;;;5019597;28;20208;-50
2021/06/18 11:50:42;;;;;;;10.85;9.95;;;32.10;49.10;;;;;;5011145;28;20236;-50
2021/06/18 11:53:17;;;;;;;13.75;10.70;;;32.00;49.70;;;;;;5008373;28;20204;-48
2021/06/18 11:55:54;;;;;;;12.00;10.52;;;32.00;50.20;;;;;;5005633;28;20203;-50
2021/06/18 11:58:35;;;;;;;11.25;10.18;;;32.00;51.00;;;;;;5010168;28;20414;-50
2021/06/18 12:01:25;;;;;;;11.70;10.70;;;32.00;51.30;;;;;;5013423;28;20223;-50
2021/06/18 12:03:53;;;;;;;11.77;10.77;;;32.00;51.00;;;;;;5017663;28;20204;-50
2021/06/18 12:06:30;;;;;;;11.15;10.35;;;32.00;50.10;;;;;;5018930;28;20215;-50
2021/06/18 12:08:57;;;;;;;11.00;10.00;;;32.00;51.10;;;;;;5018297;28;20263;-50
2021/06/18 12:11:24;;;;;;;11.43;10.32;;;32.10;51.70;;;;;;5016890;28;20215;-50
2021/06/18 12:13:53;;;;;;;11.32;9.07;;;32.20;51.60;;;;;;5019201;28;20220;-50
2021/06/18 12:16:23;;;;;;;11.13;10.10;;;32.30;50.30;;;;;;5021801;28;20401;-50
2021/06/18 12:18:50;;;;;;;12.15;11.15;;;32.30;50.30;;;;;;5018567;28;20234;-49
2021/06/18 12:21:27;;;;;;;11.43;10.27;;;32.40;49.00;;;;;;5019326;28;20733;-50
2021/06/18 12:24:05;;;;;;;10.50;9.60;;;32.50;48.70;;;;;;5019095;28;20211;-50
2021/06/18 12:26:32;;;;;;;14.10;9.50;;;32.50;49.40;;;;;;5014910;28;20200;-50
2021/06/18 12:29:01;;;;;;;10.48;9.48;;;32.50;49.70;;;;;;5016313;28;20200;-50
2021/06/18 12:31:28;;;;;;;10.80;10.00;;;32.50;49.20;;;;;;5015245;28;20216;-50
2021/06/18 12:33:55;;;;;;;12.48;11.30;;;32.60;49.50;;;;;;5014181;28;20241;-50
2021/06/18 12:36:22;;;;;;;12.27;10.88;;;32.60;50.50;;;;;;5021404;28;20567;-50
2021/06/18 12:38:48;;;;;;;11.07;10.05;;;32.60;48.50;;;;;;5019924;28;20216;-50
2021/06/18 12:41:29;;;;;;;10.52;9.73;;;32.60;48.90;;;;;;5018364;28;20292;-50
2021/06/18 12:44:00;;;;;;;10.43;9.35;;;32.50;48.50;;;;;;5005632;28;20274;-50
2021/06/18 12:46:27;;;;;;;10.75;9.75;;;32.50;48.80;;;;;;5018939;28;20227;-50
2021/06/18 12:49:11;;;;;;;12.43;11.32;;;32.50;48.00;;;;;;5022565;28;20654;-50